< < Back
Terminal Aerodrome Forecast


Current Version              Previous Versions:   1  2  3  4  5  6  7  8  9  

Terminal Aerodrome Forecast

250
FTUS44 KBMX 241135
TAFANB
TAF
KANB 241135Z 2412/2512 VRB02KT P6SM SCT050 SCT250
     FM241800 17006KT P6SM VCTS BKN050CB
     FM250000 VRB02KT P6SM SCT250=

Latest METAR

419
SAUS70 KWBC 251500 RRD
MTRANB
METAR KANB 251453Z AUTO 21004KT 10SM CLR 30/22 A3009 RMK AO2 SLP176
T03000217 50000


USA.gov is the U.S. government's official web portal to all federal, state and local government web resources and services.